createdAt,value
2018-03-24T00:02:08.156Z,5.27
2018-03-24T00:04:35.759Z,6.00
2018-03-24T00:07:03.368Z,4.37
2018-03-24T00:09:31.010Z,3.73
2018-03-24T00:11:58.684Z,4.43
2018-03-24T00:14:26.442Z,3.63
2018-03-24T00:16:54.095Z,3.57
2018-03-24T00:19:22.137Z,4.23
2018-03-24T00:21:49.850Z,3.20
2018-03-24T00:24:17.506Z,3.70
2018-03-24T00:26:45.083Z,3.40
2018-03-24T00:29:12.692Z,2.90
2018-03-24T00:31:40.393Z,3.53
2018-03-24T00:34:07.990Z,3.50
2018-03-24T00:36:35.648Z,3.17
2018-03-24T00:39:03.355Z,3.60
2018-03-24T00:41:32.572Z,4.47
2018-03-24T00:44:00.642Z,3.70
2018-03-24T00:46:29.049Z,4.10
2018-03-24T00:48:56.674Z,4.80
2018-03-24T00:51:24.361Z,4.00
2018-03-24T00:53:52.119Z,3.50
2018-03-24T00:56:20.396Z,3.73
2018-03-24T00:58:48.062Z,4.23
2018-03-24T01:01:15.736Z,3.90
2018-03-24T01:03:43.380Z,3.90
2018-03-24T01:06:11.056Z,4.40
2018-03-24T01:08:38.682Z,4.10
2018-03-24T01:11:06.614Z,3.00
2018-03-24T01:13:34.439Z,3.93
2018-03-24T01:16:02.020Z,3.57
2018-03-24T01:18:29.607Z,4.27
2018-03-24T01:20:57.447Z,3.07
2018-03-24T01:23:25.028Z,3.63
2018-03-24T01:25:53.211Z,2.43
2018-03-24T01:28:20.917Z,3.27
2018-03-24T01:30:49.247Z,3.00
2018-03-24T01:33:16.881Z,3.43
2018-03-24T01:35:44.648Z,3.87
2018-03-24T01:38:12.305Z,3.30
2018-03-24T01:40:40.040Z,3.33
2018-03-24T01:43:07.959Z,2.97
2018-03-24T01:45:36.190Z,3.57
2018-03-24T01:48:03.897Z,3.33
2018-03-24T01:50:31.533Z,4.50
2018-03-24T01:52:59.153Z,3.50
2018-03-24T01:55:27.494Z,3.30
2018-03-24T01:57:55.068Z,3.50
2018-03-24T02:00:22.713Z,3.63
2018-03-24T02:02:50.342Z,3.10
2018-03-24T02:05:17.946Z,4.00
2018-03-24T02:07:45.570Z,3.20
2018-03-24T02:10:13.214Z,2.77
2018-03-24T02:12:40.808Z,2.80
2018-03-24T02:15:08.465Z,4.23
2018-03-24T02:17:36.045Z,3.60
2018-03-24T02:20:03.911Z,2.93
2018-03-24T02:22:33.601Z,3.80
2018-03-24T02:25:01.351Z,3.10
2018-03-24T02:27:28.937Z,3.43
2018-03-24T02:29:56.585Z,3.07
2018-03-24T02:32:24.184Z,3.50
2018-03-24T02:34:52.287Z,3.10
2018-03-24T02:37:19.983Z,2.80
2018-03-24T02:39:47.656Z,3.70
2018-03-24T02:42:15.323Z,3.03
2018-03-24T02:44:42.983Z,2.63
2018-03-24T02:47:10.625Z,2.30
2018-03-24T02:49:38.516Z,3.30
2018-03-24T02:52:06.270Z,3.40
2018-03-24T02:54:33.874Z,3.07
2018-03-24T02:57:01.464Z,3.40
2018-03-24T02:59:29.122Z,2.80
2018-03-24T03:01:56.743Z,2.80
2018-03-24T03:04:24.660Z,2.93
2018-03-24T03:06:52.265Z,3.90
2018-03-24T03:09:19.925Z,2.73
2018-03-24T03:11:47.520Z,2.90
2018-03-24T03:14:15.152Z,2.70
2018-03-24T03:16:42.738Z,2.93
2018-03-24T03:19:10.418Z,3.30
2018-03-24T03:21:49.904Z,3.00
2018-03-24T03:24:19.555Z,2.47
2018-03-24T03:26:47.319Z,3.23
2018-03-24T03:29:14.927Z,2.80
2018-03-24T03:31:42.703Z,2.70
2018-03-24T03:34:10.370Z,4.33
2018-03-24T03:36:37.973Z,4.00
2018-03-24T03:39:05.695Z,6.20
2018-03-24T03:41:33.288Z,7.50
2018-03-24T03:44:00.884Z,7.27
2018-03-24T03:46:29.380Z,4.60
2018-03-24T03:48:56.954Z,4.30
2018-03-24T03:51:24.579Z,5.50
2018-03-24T03:53:52.233Z,3.83
2018-03-24T03:56:19.809Z,3.37
2018-03-24T03:58:47.458Z,4.17
2018-03-24T04:01:15.065Z,3.03
2018-03-24T04:03:42.724Z,3.30
2018-03-24T04:06:10.356Z,3.30
2018-03-24T04:08:37.994Z,2.70
2018-03-24T04:11:05.650Z,3.10
2018-03-24T04:13:33.231Z,3.40
2018-03-24T04:16:01.022Z,3.30
2018-03-24T04:18:28.637Z,3.33
2018-03-24T04:20:56.286Z,2.77
2018-03-24T04:23:23.927Z,3.53
2018-03-24T04:25:51.580Z,2.77
2018-03-24T04:28:19.284Z,2.97
2018-03-24T04:30:46.882Z,1.90
2018-03-24T04:33:14.537Z,2.80
2018-03-24T04:35:42.131Z,3.20
2018-03-24T04:38:09.788Z,2.53
2018-03-24T04:40:37.388Z,3.90
2018-03-24T04:43:05.370Z,2.40
2018-03-24T04:45:33.062Z,2.87
2018-03-24T04:48:00.646Z,2.30
2018-03-24T04:50:28.706Z,2.27
2018-03-24T04:52:56.363Z,2.60
2018-03-24T04:55:24.016Z,2.77
2018-03-24T04:57:51.664Z,2.33
2018-03-24T05:00:19.295Z,2.93
2018-03-24T05:02:47.740Z,1.70
2018-03-24T05:05:15.330Z,1.93
2018-03-24T05:07:43.028Z,1.80
2018-03-24T05:10:10.833Z,1.97
2018-03-24T05:12:38.468Z,2.37
2018-03-24T05:15:06.171Z,2.60
2018-03-24T05:17:33.822Z,1.87
2018-03-24T05:20:01.632Z,2.30
2018-03-24T05:22:29.220Z,2.70
2018-03-24T05:24:56.861Z,1.43
2018-03-24T05:27:24.618Z,2.23
2018-03-24T05:29:52.215Z,2.27
2018-03-24T05:32:19.859Z,2.40
2018-03-24T05:34:47.506Z,2.30
2018-03-24T05:37:15.333Z,2.33
2018-03-24T05:39:42.985Z,2.20
2018-03-24T05:42:10.585Z,2.67
2018-03-24T05:44:38.391Z,2.60
2018-03-24T05:47:06.072Z,2.70
2018-03-24T05:49:34.289Z,2.33
2018-03-24T05:52:02.217Z,2.77
2018-03-24T05:54:30.058Z,3.93
2018-03-24T05:56:57.848Z,3.50
2018-03-24T05:59:25.544Z,5.77
2018-03-24T06:01:53.491Z,6.33
2018-03-24T06:04:21.154Z,7.00
2018-03-24T06:06:48.799Z,4.20
2018-03-24T06:09:16.403Z,6.33
2018-03-24T06:11:44.089Z,4.93
2018-03-24T06:14:11.791Z,2.93
2018-03-24T06:16:39.454Z,2.63
2018-03-24T06:19:07.079Z,2.43
2018-03-24T06:21:34.734Z,3.50
2018-03-24T06:24:02.398Z,3.57
2018-03-24T06:26:30.230Z,4.17
2018-03-24T06:28:58.140Z,5.67
2018-03-24T06:31:28.262Z,3.53
2018-03-24T06:33:56.241Z,5.80
2018-03-24T06:36:27.858Z,5.43
2018-03-24T06:38:55.527Z,6.87
2018-03-24T06:41:23.173Z,5.83
2018-03-24T06:43:50.822Z,5.90
2018-03-24T06:46:18.553Z,3.93
2018-03-24T06:48:46.216Z,5.97
2018-03-24T06:51:13.927Z,4.50
2018-03-24T06:53:41.618Z,6.10
2018-03-24T06:56:09.266Z,5.97
2018-03-24T06:58:37.706Z,6.70
2018-03-24T07:01:05.343Z,6.20
2018-03-24T07:03:33.029Z,6.17
2018-03-24T07:06:01.273Z,9.40
2018-03-24T07:08:29.871Z,10.67
2018-03-24T07:10:57.757Z,10.20
2018-03-24T07:13:25.625Z,7.97
2018-03-24T07:15:53.472Z,7.67
2018-03-24T07:18:21.061Z,7.00
2018-03-24T07:20:48.797Z,6.77
2018-03-24T07:23:16.549Z,7.33
2018-03-24T07:25:45.559Z,6.90
2018-03-24T07:28:13.445Z,6.57
2018-03-24T07:30:41.406Z,6.33
2018-03-24T07:33:09.109Z,7.87
2018-03-24T07:35:37.314Z,7.60
2018-03-24T07:38:05.119Z,8.60
2018-03-24T07:40:33.432Z,7.53
2018-03-24T07:43:01.049Z,7.10
2018-03-24T07:45:28.805Z,7.40
2018-03-24T07:47:56.522Z,7.20
2018-03-24T07:50:24.355Z,8.53
2018-03-24T07:52:52.364Z,8.00
2018-03-24T07:55:20.192Z,7.53
2018-03-24T07:57:48.472Z,8.70
2018-03-24T08:00:16.664Z,7.33
2018-03-24T08:02:44.444Z,6.80
2018-03-24T08:05:12.377Z,8.17
2018-03-24T08:07:40.223Z,7.80
2018-03-24T08:10:08.096Z,7.77
2018-03-24T08:12:36.711Z,6.77
2018-03-24T08:15:04.324Z,6.30
2018-03-24T08:17:32.606Z,8.00
2018-03-24T08:20:01.413Z,9.17
2018-03-24T08:22:29.694Z,6.43
2018-03-24T08:24:57.663Z,7.57
2018-03-24T08:27:25.336Z,6.90
2018-03-24T08:29:53.422Z,7.83
2018-03-24T08:32:21.040Z,7.03
2018-03-24T08:34:48.933Z,7.10
2018-03-24T08:37:16.602Z,7.00
2018-03-24T08:39:44.433Z,5.30
2018-03-24T08:42:13.565Z,7.30
2018-03-24T08:44:41.457Z,6.40
2018-03-24T08:47:09.929Z,6.47
2018-03-24T08:49:37.593Z,5.50
2018-03-24T08:52:05.910Z,5.90
2018-03-24T08:54:34.429Z,5.73
2018-03-24T08:57:02.402Z,4.93
2018-03-24T08:59:30.014Z,5.27
2018-03-24T09:01:57.705Z,4.30
2018-03-24T09:04:25.548Z,5.23
2018-03-24T09:06:53.332Z,4.60
2018-03-24T09:09:21.800Z,4.43
2018-03-24T09:11:49.470Z,4.63
2018-03-24T09:14:17.295Z,3.90
2018-03-24T09:16:44.990Z,5.20
2018-03-24T09:19:12.654Z,4.33
2018-03-24T09:21:41.375Z,4.57
2018-03-24T09:24:09.072Z,4.90
2018-03-24T09:26:36.752Z,4.30
2018-03-24T09:29:05.476Z,5.10
2018-03-24T09:31:33.561Z,4.47
2018-03-24T09:34:02.058Z,3.93
2018-03-24T09:36:32.289Z,3.90
2018-03-24T09:39:00.747Z,4.47
2018-03-24T09:41:28.963Z,4.03
2018-03-24T09:43:56.736Z,4.67
2018-03-24T09:46:24.434Z,4.10
2018-03-24T09:48:52.115Z,4.20
2018-03-24T09:51:19.852Z,3.77
2018-03-24T09:53:47.564Z,4.37
2018-03-24T09:56:15.249Z,3.33
2018-03-24T09:58:42.958Z,4.40
2018-03-24T10:01:10.795Z,4.10
2018-03-24T10:03:39.152Z,4.00
2018-03-24T10:06:07.067Z,4.13
2018-03-24T10:08:34.707Z,3.70
2018-03-24T10:11:02.391Z,4.17
2018-03-24T10:13:30.165Z,3.43
2018-03-24T10:15:57.829Z,2.90
2018-03-24T10:18:25.673Z,3.67
2018-03-24T10:20:56.888Z,3.20
2018-03-24T10:23:33.324Z,4.13
2018-03-24T10:26:01.183Z,3.60
2018-03-24T10:28:29.381Z,3.40
2018-03-24T10:30:57.106Z,3.00
2018-03-24T10:33:25.568Z,3.83
2018-03-24T10:35:53.440Z,3.30
2018-03-24T10:38:21.426Z,3.30
2018-03-24T10:40:49.271Z,3.57
2018-03-24T10:43:22.437Z,3.80
2018-03-24T10:45:50.151Z,3.80
2018-03-24T10:48:17.795Z,4.13
2018-03-24T10:50:45.477Z,3.90
2018-03-24T10:53:13.085Z,3.90
2018-03-24T10:55:40.754Z,3.40
2018-03-24T10:58:08.361Z,3.30
2018-03-24T11:00:36.086Z,3.30
2018-03-24T11:03:03.901Z,3.53
2018-03-24T11:05:31.764Z,3.30
2018-03-24T11:07:59.833Z,3.60
2018-03-24T11:10:27.466Z,3.10
2018-03-24T11:12:55.152Z,4.03
2018-03-24T11:15:22.805Z,4.30
2018-03-24T11:17:50.415Z,3.23
2018-03-24T11:20:18.124Z,3.00
2018-03-24T11:22:47.077Z,3.57
2018-03-24T11:25:14.799Z,2.63
2018-03-24T11:27:42.671Z,3.37
2018-03-24T11:30:11.246Z,3.50
2018-03-24T11:32:38.929Z,4.10
2018-03-24T11:35:07.185Z,2.90
2018-03-24T11:37:36.283Z,3.23
2018-03-24T11:40:04.558Z,3.70
2018-03-24T11:42:32.526Z,3.37
2018-03-24T11:45:00.147Z,3.53
2018-03-24T11:47:30.160Z,2.90
2018-03-24T11:49:57.875Z,3.93
2018-03-24T11:52:25.731Z,2.73
2018-03-24T11:54:53.422Z,3.50
2018-03-24T11:57:21.122Z,3.77
2018-03-24T11:59:48.780Z,3.50
2018-03-24T12:02:16.439Z,2.93
2018-03-24T12:04:44.987Z,3.33
2018-03-24T12:07:13.790Z,3.00
2018-03-24T12:09:41.391Z,2.80
2018-03-24T12:12:09.093Z,2.90
2018-03-24T12:14:36.761Z,2.90
2018-03-24T12:17:04.925Z,2.60
2018-03-24T12:19:32.870Z,2.90
2018-03-24T12:22:00.486Z,3.30
2018-03-24T12:24:28.321Z,2.83
2018-03-24T12:26:56.390Z,3.20
2018-03-24T12:29:23.987Z,3.40
2018-03-24T12:31:51.712Z,3.00
2018-03-24T12:34:20.048Z,3.37
2018-03-24T12:36:48.469Z,2.67
2018-03-24T12:39:16.191Z,2.70
2018-03-24T12:41:43.966Z,2.57
2018-03-24T12:44:11.632Z,3.23
2018-03-24T12:46:39.343Z,2.47
2018-03-24T12:49:06.941Z,3.17
2018-03-24T12:51:34.744Z,3.03
2018-03-24T12:54:02.596Z,3.13
2018-03-24T12:56:30.286Z,2.53
2018-03-24T12:58:58.049Z,2.93
2018-03-24T13:01:25.651Z,2.90
2018-03-24T13:03:53.462Z,2.63
2018-03-24T13:06:21.647Z,3.10
2018-03-24T13:08:49.572Z,3.43
2018-03-24T13:11:17.794Z,2.80
2018-03-24T13:13:45.548Z,2.80
2018-03-24T13:16:13.207Z,3.13
2018-03-24T13:18:42.551Z,3.47
2018-03-24T13:21:11.289Z,3.90
2018-03-24T13:23:39.067Z,2.93
2018-03-24T13:26:06.944Z,3.00
2018-03-24T13:28:35.222Z,2.97
2018-03-24T13:31:02.913Z,3.00
2018-03-24T13:33:31.348Z,2.90
2018-03-24T13:35:59.167Z,3.57
2018-03-24T13:38:26.900Z,3.97
2018-03-24T13:40:54.662Z,3.03
2018-03-24T13:43:22.321Z,2.87
2018-03-24T13:45:51.334Z,3.10
2018-03-24T13:48:18.982Z,3.50
2018-03-24T13:50:46.638Z,3.27
2018-03-24T13:53:14.503Z,8.67
2018-03-24T13:55:42.841Z,4.77
2018-03-24T13:58:11.514Z,4.57
2018-03-24T14:00:39.231Z,3.30
2018-03-24T14:03:07.872Z,3.50
2018-03-24T14:05:35.493Z,4.07
2018-03-24T14:08:03.364Z,4.73
2018-03-24T14:10:31.880Z,4.37
2018-03-24T14:13:00.362Z,4.70
2018-03-24T14:15:28.148Z,4.37
2018-03-24T14:17:56.031Z,3.97
2018-03-24T14:20:23.725Z,3.63
2018-03-24T14:22:51.907Z,4.57
2018-03-24T14:25:19.541Z,3.67
2018-03-24T14:27:48.094Z,3.57
2018-03-24T14:30:15.734Z,3.60
2018-03-24T14:32:43.394Z,4.70
2018-03-24T14:35:11.073Z,4.47
2018-03-24T14:37:38.684Z,4.27
2018-03-24T14:40:06.362Z,3.57
2018-03-24T14:42:34.203Z,4.10
2018-03-24T14:45:01.867Z,4.30
2018-03-24T14:47:29.472Z,4.37
2018-03-24T14:49:57.935Z,3.70
2018-03-24T14:52:25.630Z,3.97
2018-03-24T14:54:53.260Z,3.27
2018-03-24T14:57:20.931Z,4.77
2018-03-24T14:59:48.588Z,4.13
2018-03-24T15:02:16.179Z,4.80
2018-03-24T15:04:43.831Z,4.33
2018-03-24T15:07:11.490Z,4.20
2018-03-24T15:09:39.247Z,5.30
2018-03-24T15:12:06.914Z,4.00
2018-03-24T15:14:34.604Z,4.47
2018-03-24T15:17:02.312Z,3.50
2018-03-24T15:19:30.017Z,4.47
2018-03-24T15:21:57.656Z,4.50
2018-03-24T15:24:25.410Z,5.20
2018-03-24T15:26:53.051Z,4.77
2018-03-24T15:29:32.493Z,4.20
2018-03-24T15:32:11.803Z,4.83
2018-03-24T15:34:51.296Z,5.40
2018-03-24T15:37:18.975Z,4.73
2018-03-24T15:39:46.773Z,4.90
2018-03-24T15:42:15.659Z,4.70
2018-03-24T15:44:43.406Z,5.87
2018-03-24T15:47:11.203Z,5.13
2018-03-24T15:49:38.871Z,5.40
2018-03-24T15:52:07.159Z,4.70
2018-03-24T15:54:35.124Z,8.27
2018-03-24T15:57:02.906Z,5.03
2018-03-24T15:59:30.776Z,4.83
2018-03-24T16:01:58.576Z,5.00
2018-03-24T16:04:26.590Z,5.97
2018-03-24T16:06:54.282Z,4.40
2018-03-24T16:09:22.842Z,5.97
2018-03-24T16:11:50.544Z,5.00
2018-03-24T16:14:18.198Z,5.60
2018-03-24T16:16:46.014Z,5.37
2018-03-24T16:19:14.071Z,5.90
2018-03-24T16:21:42.168Z,5.10
2018-03-24T16:24:10.694Z,5.57
2018-03-24T16:26:38.622Z,4.53
2018-03-24T16:29:06.792Z,5.57
2018-03-24T16:31:36.709Z,6.83
2018-03-24T16:34:04.360Z,6.90
2018-03-24T16:36:32.390Z,5.60
2018-03-24T16:39:00.721Z,4.70
2018-03-24T16:41:28.589Z,5.30
2018-03-24T16:43:56.491Z,5.40
2018-03-24T16:46:24.411Z,7.33
2018-03-24T16:48:52.496Z,6.73
2018-03-24T16:51:20.496Z,7.00
2018-03-24T16:53:48.263Z,6.17
2018-03-24T16:56:16.278Z,7.30
2018-03-24T16:58:44.152Z,7.00
2018-03-24T17:01:11.887Z,6.23
2018-03-24T17:03:39.901Z,7.60
2018-03-24T17:06:07.898Z,5.83
2018-03-24T17:08:36.563Z,6.70
2018-03-24T17:11:04.742Z,5.30
2018-03-24T17:13:33.948Z,4.90
2018-03-24T17:16:02.090Z,4.17
2018-03-24T17:18:29.747Z,4.57
2018-03-24T17:20:57.435Z,3.90
2018-03-24T17:23:25.070Z,3.77
2018-03-24T17:25:52.965Z,4.10
2018-03-24T17:28:20.817Z,3.73
2018-03-24T17:30:48.486Z,4.00
2018-03-24T17:33:16.640Z,3.83
2018-03-24T17:35:44.622Z,4.77
2018-03-24T17:38:12.500Z,4.20
2018-03-24T17:40:40.165Z,4.47
2018-03-24T17:43:08.178Z,6.70
2018-03-24T17:45:36.118Z,3.60
2018-03-24T17:48:04.039Z,4.00
2018-03-24T17:50:32.008Z,5.03
2018-03-24T17:52:59.869Z,4.90
2018-03-24T17:55:27.541Z,5.10
2018-03-24T17:57:55.997Z,4.17
2018-03-24T18:00:25.597Z,3.77
2018-03-24T18:02:53.418Z,4.70
2018-03-24T18:05:21.352Z,4.60
2018-03-24T18:07:49.982Z,4.03
2018-03-24T18:10:17.899Z,7.87
2018-03-24T18:12:46.725Z,5.10
2018-03-24T18:15:16.663Z,5.10
2018-03-24T18:17:44.521Z,4.30
2018-03-24T18:20:12.560Z,4.63
2018-03-24T18:22:40.651Z,5.73
2018-03-24T18:25:08.706Z,7.07
2018-03-24T18:27:37.449Z,10.60
2018-03-24T18:30:06.025Z,12.40
2018-03-24T18:32:35.116Z,17.13
2018-03-24T18:35:04.860Z,6.13
2018-03-24T18:37:32.860Z,7.20
2018-03-24T18:40:00.846Z,6.03
2018-03-24T18:42:28.949Z,5.37
2018-03-24T18:44:57.457Z,8.40
2018-03-24T18:47:25.159Z,11.30
2018-03-24T18:49:53.658Z,9.83
2018-03-24T18:52:22.035Z,5.00
2018-03-24T18:54:50.096Z,5.20
2018-03-24T18:57:20.565Z,3.80
2018-03-24T18:59:49.119Z,3.77
2018-03-24T19:02:17.861Z,3.87
2018-03-24T19:04:45.960Z,4.27
2018-03-24T19:07:15.422Z,4.33
2018-03-24T19:09:43.733Z,7.00
2018-03-24T19:12:11.935Z,6.20
2018-03-24T19:14:40.364Z,5.10
2018-03-24T19:17:09.398Z,5.53
2018-03-24T19:19:37.962Z,4.20
2018-03-24T19:22:06.889Z,4.20
2018-03-24T19:24:35.945Z,4.60
2018-03-24T19:27:04.386Z,3.87
2018-03-24T19:29:32.917Z,3.97
2018-03-24T19:32:02.633Z,3.83
2018-03-24T19:34:31.276Z,3.00
2018-03-24T19:36:59.243Z,3.30
2018-03-24T19:39:27.777Z,4.13
2018-03-24T19:41:56.036Z,3.20
2018-03-24T19:44:24.042Z,4.40
2018-03-24T19:46:53.691Z,3.90
2018-03-24T19:49:21.976Z,3.33
2018-03-24T19:51:49.988Z,3.80
2018-03-24T19:54:18.810Z,4.40
2018-03-24T19:56:47.017Z,3.40
2018-03-24T19:59:15.491Z,4.00
2018-03-24T20:01:43.679Z,5.30
2018-03-24T20:04:12.395Z,4.07
2018-03-24T20:06:40.863Z,4.30
2018-03-24T20:09:08.816Z,4.93
2018-03-24T20:11:36.862Z,7.37
2018-03-24T20:14:04.930Z,4.77
2018-03-24T20:16:33.792Z,4.47
2018-03-24T20:19:02.140Z,4.73
2018-03-24T20:21:30.807Z,4.53
2018-03-24T20:23:58.834Z,7.40
2018-03-24T20:26:28.152Z,6.37
2018-03-24T20:28:56.169Z,4.97
2018-03-24T20:31:25.516Z,4.77
2018-03-24T20:33:53.908Z,4.80
2018-03-24T20:36:22.453Z,5.83
2018-03-24T20:38:50.310Z,5.13
2018-03-24T20:41:18.191Z,5.20
2018-03-24T20:43:45.920Z,5.90
2018-03-24T20:46:13.731Z,5.03
2018-03-24T20:48:41.576Z,5.00
2018-03-24T20:51:09.523Z,4.67
2018-03-24T20:53:37.527Z,4.47
2018-03-24T20:56:05.705Z,5.87
2018-03-24T20:58:33.560Z,5.20
2018-03-24T21:01:02.265Z,5.40
2018-03-24T21:03:30.117Z,6.07
2018-03-24T21:05:58.050Z,6.37
2018-03-24T21:08:26.657Z,6.30
2018-03-24T21:10:54.525Z,4.73
2018-03-24T21:13:22.414Z,4.60
2018-03-24T21:15:50.466Z,5.50
2018-03-24T21:18:18.234Z,6.33
2018-03-24T21:20:46.146Z,3.23
2018-03-24T21:23:14.041Z,5.33
2018-03-24T21:25:42.770Z,6.03
2018-03-24T21:28:11.237Z,5.90
2018-03-24T21:30:39.095Z,6.03
2018-03-24T21:33:06.986Z,6.83
2018-03-24T21:35:34.760Z,5.20
2018-03-24T21:38:02.624Z,4.63
2018-03-24T21:40:30.280Z,5.03
2018-03-24T21:42:57.941Z,4.50
2018-03-24T21:45:25.609Z,4.83
2018-03-24T21:47:53.872Z,5.90
2018-03-24T21:50:21.543Z,5.47
2018-03-24T21:52:49.200Z,5.40
2018-03-24T21:55:16.963Z,6.00
2018-03-24T21:57:44.680Z,5.30
2018-03-24T22:00:12.492Z,4.40
2018-03-24T22:02:40.832Z,5.97
2018-03-24T22:05:08.828Z,6.17
2018-03-24T22:07:36.821Z,7.87
2018-03-24T22:10:04.781Z,5.23
2018-03-24T22:12:32.667Z,6.40
2018-03-24T22:15:01.350Z,5.20
2018-03-24T22:17:29.414Z,6.17
2018-03-24T22:19:57.297Z,6.30
2018-03-24T22:22:25.298Z,4.43
2018-03-24T22:24:53.222Z,5.10
2018-03-24T22:27:21.888Z,6.13
2018-03-24T22:29:49.977Z,4.70
2018-03-24T22:32:19.386Z,7.13
2018-03-24T22:34:47.212Z,6.63
2018-03-24T22:37:15.670Z,5.97
2018-03-24T22:39:43.555Z,7.00
2018-03-24T22:42:12.185Z,7.80
2018-03-24T22:44:39.843Z,5.33
2018-03-24T22:47:07.519Z,4.50
2018-03-24T22:49:37.976Z,6.33
2018-03-24T22:52:05.699Z,5.77
2018-03-24T22:54:33.349Z,7.33
2018-03-24T22:57:01.224Z,5.30
2018-03-24T22:59:29.086Z,7.23
2018-03-24T23:01:56.817Z,7.10
2018-03-24T23:04:24.622Z,5.47
2018-03-24T23:06:52.627Z,5.30
2018-03-24T23:09:20.280Z,6.10
2018-03-24T23:11:47.962Z,7.03
2018-03-24T23:14:16.016Z,7.60
2018-03-24T23:16:43.640Z,7.00
2018-03-24T23:19:11.279Z,6.90
2018-03-24T23:21:38.977Z,5.53
2018-03-24T23:24:06.877Z,6.90
2018-03-24T23:26:34.738Z,6.60
2018-03-24T23:29:02.580Z,5.90
2018-03-24T23:31:30.441Z,8.20
2018-03-24T23:33:58.037Z,7.93
2018-03-24T23:36:25.681Z,9.47
2018-03-24T23:38:53.436Z,7.50
2018-03-24T23:41:21.306Z,6.60
2018-03-24T23:43:48.888Z,7.10
2018-03-24T23:46:16.519Z,7.27
2018-03-24T23:48:44.274Z,8.93
2018-03-24T23:51:11.927Z,6.00
2018-03-24T23:53:39.528Z,6.90
2018-03-24T23:56:07.277Z,6.33
2018-03-24T23:58:34.868Z,7.50
